Latest Weather Observations for Esperance Airport

IDW60801

Issued at 10:05 am WST Friday 21 November 2014 (issued every 30 minutes, with the page automatically refreshed every 10 minutes)

About weather observations | Map of weather stations | Latest weather observations for WA | Other Formats
Station Details ID: 009542 Name: ESPERANCE AERO Lat: -33.68 Lon: 121.83 Height: 142.0 m
Data from the previous 72 hours. | See also: Recent months at Esperance Airport
Date/Time
WST
Temp
°C
App
Temp
°C
Dew
Point
Rel
Hum
%
Delta-T
°C
Wind Press
QNH
hPa
Press
MSL
hPa
Rain
since 9 am
mm
Dir
 
Spd
km/h
Gust
km/h
Spd
kts
Gust
kts
21/10:00am 21.6 17.3 13.2 59 4.9 SW 28 46 15 25 1009.4 1009.0 0.0
21/09:56am 21.7 16.7 13.3 59 4.9 SW 32 46 17 25 1009.3 1008.9 0.0
21/09:30am 20.9 17.9 12.6 59 4.7 W 20 28 11 15 1009.5 1009.1 0.0
21/09:00am 21.1 17.5 13.0 60 4.7 WSW 24 35 13 19 1009.6 1009.2 0.2
21/08:30am 21.2 16.7 12.6 58 4.9 WSW 28 32 15 17 1009.6 1009.2 0.2
21/08:00am 19.8 16.3 12.3 62 4.2 W 22 35 12 19 1009.8 1009.4 0.2
21/07:30am 17.2 14.2 12.5 74 2.6 W 20 24 11 13 1009.8 1009.4 0.2
21/07:00am 16.5 14.4 12.5 77 2.2 WNW 15 20 8 11 1009.7 1009.3 0.2
21/06:30am 15.8 13.8 12.7 82 1.7 WNW 15 19 8 10 1009.5 1009.1 0.2
21/06:00am 15.3 12.9 12.6 84 1.5 WNW 17 22 9 12 1009.2 1008.8 0.2
21/05:30am 15.0 13.4 12.7 86 1.3 NW 13 17 7 9 1009.0 1008.7 0.2
21/05:00am 14.7 12.4 12.9 89 1.0 WNW 17 19 9 10 1008.7 1008.4 0.2
21/04:30am 14.5 12.9 14.0 97 0.3 WNW 15 19 8 10 1008.4 1008.1 0.2
21/04:00am 14.5 13.4 14.2 98 0.2 NW 13 17 7 9 1008.2 1007.9 0.2
21/03:30am 14.7 14.0 14.4 98 0.2 NW 11 15 6 8 1008.1 1007.8 0.2
21/03:00am 15.2 15.0 14.7 97 0.3 NW 9 11 5 6 1008.1 1007.8 0.2
21/02:30am 15.3 15.1 14.7 96 0.3 WNW 9 13 5 7 1008.1 1007.8 0.2
21/02:00am 14.6 14.0 13.5 93 0.6 WNW 9 11 5 6 1008.2 1007.9 0.2
21/01:30am 14.4 13.6 13.0 91 0.8 W 9 11 5 6 1008.1 1007.8 0.2
21/01:00am 14.5 14.1 12.9 90 0.9 WNW 7 9 4 5 1008.1 1007.8 0.2
21/12:30am 14.9 14.6 12.8 87 1.2 NNW 6 7 3 4 1008.2 1007.9 0.2
21/12:00am 15.4 15.3 13.2 87 1.2 WNW 6 7 3 4 1008.5 1008.2 0.2
 
Date/Time
WST
Temp
°C
App
Temp
°C
Dew
Point
Rel
Hum
%
Delta-T
°C
Wind Press
QNH
hPa
Press
MSL
hPa
Rain
since 9 am
mm
Dir
 
Spd
km/h
Gust
km/h
Spd
kts
Gust
kts
20/11:30pm 15.9 15.6 13.2 84 1.5 W 7 11 4 6 1008.9 1008.6 0.2
20/11:00pm 16.1 15.0 13.0 82 1.7 WSW 11 13 6 7 1009.2 1008.8 0.2
20/10:30pm 16.5 16.0 12.8 79 2.1 NNW 7 11 4 6 1009.2 1008.8 0.2
20/10:00pm 16.8 15.9 12.7 77 2.3 N 9 11 5 6 1009.2 1008.8 0.2
20/09:30pm 18.3 17.8 12.5 69 3.3 NNE 7 9 4 5 1009.2 1008.8 0.2
20/09:00pm 18.9 17.6 12.4 66 3.7 NNE 11 13 6 7 1008.9 1008.6 0.2
20/08:30pm 19.1 18.0 11.9 63 4.0 NNE 9 13 5 7 1008.9 1008.6 0.2
20/08:00pm 19.8 18.7 11.8 60 4.5 NE 9 13 5 7 1008.7 1008.4 0.2
20/07:30pm 19.9 19.4 11.9 60 4.5 NE 6 9 3 5 1008.5 1008.2 0.2
20/07:00pm 20.0 19.4 12.3 61 4.3 NE 7 11 4 6 1008.3 1008.0 0.2
20/06:30pm 21.0 19.5 11.9 56 5.1 NE 11 17 6 9 1007.9 1007.6 0.2
20/06:00pm 21.7 20.8 12.5 56 5.3 ENE 9 15 5 8 1008.0 1007.7 0.2
20/05:30pm 21.5 20.2 12.6 57 5.1 ENE 11 15 6 8 1008.0 1007.7 0.2
20/05:00pm 22.5 20.7 12.2 52 5.9 ESE 13 17 7 9 1008.1 1007.8 0.2
20/04:30pm 22.8 20.2 12.1 51 6.1 SSE 17 20 9 11 1008.2 1007.9 0.2
20/04:00pm 23.6 21.3 12.9 51 6.2 S 17 22 9 12 1008.6 1008.3 0.2
20/03:30pm 24.2 20.6 13.1 50 6.5 S 24 35 13 19 1009.2 1008.8 0.2
20/03:00pm 23.4 18.2 12.7 51 6.2 S 32 39 17 21 1009.3 1008.9 0.2
20/02:30pm 23.9 19.1 14.0 54 5.8 S 32 43 17 23 1009.2 1008.8 0.2
20/02:00pm 24.5 20.1 14.0 52 6.2 SSW 30 43 16 23 1008.8 1008.5 0.2
20/01:30pm 24.8 19.9 14.3 52 6.3 SSW 33 43 18 23 1008.7 1008.4 0.2
20/01:12pm 24.9 19.4 13.5 49 6.7 SW 35 46 19 25 1008.4 1008.1 0.2
20/01:10pm 25.8 19.3 13.0 45 7.5 W 39 48 21 26 1008.2 1007.9 0.2
20/01:00pm 26.5 21.0 11.8 40 8.5 WNW 32 46 17 25 1008.3 1008.0 0.2
20/12:34pm 27.1 21.9 11.6 38 8.9 WNW 30 54 16 29 1008.7 1008.4 0.2
20/12:30pm 26.3 21.7 12.4 42 8.1 WNW 28 39 15 21 1008.8 1008.5 0.2
20/12:00pm 26.0 20.6 12.8 44 7.7 NW 33 44 18 24 1009.5 1009.1 0.2
20/11:30am 26.0 23.2 15.4 52 6.5 NW 24 35 13 19 1010.3 1009.9 0.2
20/11:00am 24.6 21.5 14.4 53 6.1 NNW 24 35 13 19 1010.8 1010.4 0.2
20/10:30am 24.0 19.8 14.7 56 5.6 NNW 30 43 16 23 1011.3 1010.9 0.2
20/10:00am 22.7 18.4 14.5 60 4.9 NNW 30 44 16 24 1011.7 1011.4 0.2
20/09:30am 21.6 17.2 13.0 58 4.9 N 28 39 15 21 1012.1 1011.8 0.0
20/09:00am 21.6 18.2 12.5 56 5.2 N 22 32 12 17 1012.4 1012.1 0.0
20/08:30am 20.8 17.2 9.7 49 6.0 N 19 30 10 16 1013.1 1012.8 0.0
20/08:00am 19.2 16.0 11.3 60 4.4 N 19 24 10 13 1013.3 1013.0 0.0
20/07:30am 18.2 14.7 11.0 63 3.9 N 20 26 11 14 1013.1 1012.8 0.0
20/07:00am 17.0 14.0 12.1 73 2.7 N 19 24 10 13 1013.4 1013.1 0.0
20/06:30am 15.7 14.2 13.0 84 1.5 N 13 19 7 10 1013.6 1013.3 0.0
20/06:00am 14.0 11.9 12.4 90 0.9 N 15 19 8 10 1013.5 1013.2 0.0
20/05:30am 11.9 9.8 11.1 95 0.4 N 13 17 7 9 1013.7 1013.4 0.0
20/05:00am 11.6 9.5 11.0 96 0.3 N 13 17 7 9 1013.9 1013.6 0.0
20/04:30am 11.4 9.6 10.8 96 0.3 N 11 13 6 7 1013.7 1013.4 0.0
20/04:00am 11.3 9.9 10.8 97 0.3 N 9 11 5 6 1013.6 1013.3 0.0
20/03:30am 10.6 8.6 10.1 97 0.3 N 11 13 6 7 1013.7 1013.4 0.0
20/03:00am 10.7 8.7 10.2 97 0.3 N 11 11 6 6 1013.8 1013.5 0.0
20/02:30am 10.7 9.1 10.1 96 0.3 N 9 11 5 6 1014.0 1013.7 0.0
20/02:00am 11.0 11.1 10.2 95 0.4 CALM 0 0 0 0 1013.8 1013.5 0.0
20/01:30am 11.4 11.6 10.6 95 0.4 CALM 0 0 0 0 1013.8 1013.5 0.0
20/01:00am 11.9 12.3 11.3 96 0.3 CALM 0 0 0 0 1014.3 1014.0 0.0
20/12:30am 12.0 12.4 11.4 96 0.3 CALM 0 0 0 0 1014.4 1014.1 0.0
20/12:00am 12.4 13.0 11.8 96 0.3 CALM 0 0 0 0 1014.8 1014.5 0.0
 
Date/Time
WST
Temp
°C
App
Temp
°C
Dew
Point
Rel
Hum
%
Delta-T
°C
Wind Press
QNH
hPa
Press
MSL
hPa
Rain
since 9 am
mm
Dir
 
Spd
km/h
Gust
km/h
Spd
kts
Gust
kts
19/11:30pm 12.7 13.4 12.1 96 0.3 CALM 0 0 0 0 1015.1 1014.8 0.0
19/11:00pm 11.5 11.0 10.7 95 0.4 SSE 4 6 2 3 1015.4 1015.1 0.0
19/10:30pm 11.7 12.0 10.8 94 0.5 CALM 0 0 0 0 1015.3 1015.0 0.0
19/10:00pm 12.1 12.5 11.2 94 0.5 CALM 0 0 0 0 1015.4 1015.1 0.0
19/09:30pm 12.7 13.2 11.6 93 0.6 CALM 0 0 0 0 1015.6 1015.3 0.0
19/09:00pm 12.5 12.9 11.2 92 0.7 CALM 0 0 0 0 1015.6 1015.3 0.0
19/08:30pm 13.4 13.9 11.6 89 1.0 CALM 0 4 0 2 1015.5 1015.2 0.0
19/08:00pm 14.0 13.3 11.3 84 1.4 SSE 6 7 3 4 1015.4 1015.1 0.0
19/07:30pm 14.0 13.7 11.3 84 1.4 SSE 4 7 2 4 1015.2 1014.9 0.0
19/07:00pm 14.4 13.6 11.6 83 1.5 S 7 9 4 5 1015.2 1014.9 0.0
19/06:30pm 15.5 14.2 11.3 76 2.3 S 9 11 5 6 1014.9 1014.6 0.0
19/06:00pm 16.6 15.0 11.5 72 2.8 S 11 15 6 8 1014.6 1014.3 0.0
19/05:30pm 16.6 13.3 10.9 69 3.1 S 19 24 10 13 1014.1 1013.8 0.0
19/05:00pm 18.0 14.8 11.1 64 3.8 S 19 22 10 12 1013.5 1013.2 0.0
19/04:30pm 18.8 16.4 12.5 67 3.5 S 17 22 9 12 1013.5 1013.2 0.0
19/04:00pm 18.6 16.1 12.4 67 3.5 S 17 22 9 12 1013.4 1013.1 0.0
19/03:30pm 17.6 15.5 12.3 71 2.9 S 15 20 8 11 1013.8 1013.5 0.0
19/03:00pm 17.5 14.6 12.2 71 2.9 S 19 24 10 13 1013.8 1013.5 0.0
19/02:30pm 17.6 15.3 13.1 75 2.5 S 17 20 9 11 1013.6 1013.3 0.0
19/02:00pm 16.9 13.2 12.8 77 2.3 S 24 28 13 15 1013.7 1013.4 0.0
19/01:30pm 17.1 13.9 13.2 78 2.2 S 22 28 12 15 1013.6 1013.3 0.0
19/01:00pm 18.0 15.4 13.7 76 2.5 SSW 20 26 11 14 1013.4 1013.1 0.0
19/12:30pm 18.0 15.3 13.5 75 2.6 SSW 20 26 11 14 1013.4 1013.1 0.0
19/12:00pm 18.8 16.2 13.9 73 2.8 SSW 20 28 11 15 1013.4 1013.1 0.0
19/11:30am 18.6 16.2 13.7 73 2.8 SSW 19 22 10 12 1013.4 1013.1 0.0
19/11:00am 17.4 14.2 14.3 82 1.8 SSW 24 32 13 17 1013.5 1013.2 0.0
19/10:30am 19.2 16.0 13.2 68 3.4 S 22 32 12 17 1013.2 1012.9 0.0
19/10:00am 19.2 16.5 13.4 69 3.3 S 20 26 11 14 1013.2 1012.9 0.0
19/09:30am 18.8 15.6 13.2 70 3.2 SSW 22 28 12 15 1013.2 1012.9 0.0
19/09:00am 18.2 15.3 13.9 76 2.5 S 22 28 12 15 1013.0 1012.7 13.8
19/08:30am 18.2 15.4 14.3 78 2.3 S 22 30 12 16 1013.0 1012.7 13.8
19/08:00am 17.6 14.9 14.5 82 1.8 S 22 30 12 16 1012.9 1012.6 13.8
19/07:30am 17.0 14.5 14.1 83 1.7 S 20 28 11 15 1013.1 1012.8 13.8
19/07:00am 16.5 14.6 14.2 86 1.3 SSW 17 22 9 12 1013.2 1012.9 13.8
19/06:30am 16.2 14.0 14.4 89 1.0 SSW 19 22 10 12 1012.7 1012.4 13.8
19/06:00am 16.0 13.8 14.9 93 0.6 SSW 20 28 11 15 1011.7 1011.4 13.8
19/05:30am 16.0 14.5 15.2 95 0.5 SSW 17 20 9 11 1011.6 1011.3 13.8
19/05:00am 16.0 15.0 15.5 97 0.3 SSW 15 20 8 11 1011.4 1011.0 13.8
19/04:32am 16.1 14.3 15.6 97 0.3 SSW 19 22 10 12 1010.7 1010.3 13.8
19/04:30am 16.1 14.8 15.8 98 0.2 SSW 17 22 9 12 1010.7 1010.3 13.8
19/04:00am 16.2 14.9 15.9 98 0.2 SSW 17 22 9 12 1010.5 1010.1 13.8
19/03:30am 16.3 14.7 16.1 99 0.1 SSW 19 24 10 13 1010.3 1009.9 13.8
19/03:00am 16.4 14.3 16.2 99 0.1 SSW 22 32 12 17 1010.1 1009.7 13.8
19/02:30am 16.4 13.9 16.2 99 0.1 SSW 24 30 13 16 1009.6 1009.2 13.8
19/02:00am 16.6 14.6 16.4 99 0.1 SSW 22 32 12 17 1009.4 1009.0 13.8
19/01:30am 16.8 15.4 16.6 99 0.1 SW 19 22 10 12 1009.2 1008.8 13.8
19/01:00am 17.1 15.8 16.9 99 0.1 SW 19 24 10 13 1009.2 1008.8 13.8
19/12:32am 17.3 16.5 17.1 99 0.1 SSW 17 24 9 13 1009.2 1008.8 13.8
19/12:30am 17.2 16.4 17.0 99 0.1 SSW 17 24 9 13 1009.2 1008.8 13.8
19/12:00am 17.4 16.6 17.2 99 0.1 SSW 17 20 9 11 1009.0 1008.7 13.8
 
Date/Time
WST
Temp
°C
App
Temp
°C
Dew
Point
Rel
Hum
%
Delta-T
°C
Wind Press
QNH
hPa
Press
MSL
hPa
Rain
since 9 am
mm
Dir
 
Spd
km/h
Gust
km/h
Spd
kts
Gust
kts
18/11:30pm 17.6 16.5 17.4 99 0.1 SSW 19 24 10 13 1009.6 1009.2 13.8
18/11:00pm 17.7 16.7 17.5 99 0.1 SSW 19 24 10 13 1009.4 1009.0 13.8
18/10:30pm 17.9 17.4 17.7 99 0.1 SW 17 22 9 12 1009.6 1009.2 13.8
18/10:00pm 18.0 17.1 17.8 99 0.1 SW 19 24 10 13 1009.9 1009.5 13.8
18/09:30pm 18.8 18.2 18.5 98 0.2 WSW 19 28 10 15 1009.8 1009.4 13.8
18/09:18pm 19.3 19.6 18.8 97 0.3 WSW 15 19 8 10 1009.4 1009.0 13.8
18/09:16pm 19.4 19.8 18.9 97 0.3 WSW 15 19 8 10 1009.4 1009.0 13.8
18/09:00pm 19.3 20.8 18.8 97 0.3 W 9 13 5 7 1009.0 1008.7 13.8
18/08:30pm 19.3 21.6 18.5 95 0.5 SW 4 9 2 5 1008.6 1008.3 13.8
18/08:00pm 19.6 22.7 18.6 94 0.6 CALM 0 6 0 3 1008.1 1007.8 13.8
18/07:30pm 19.5 18.8 18.3 93 0.7 SW 19 20 10 11 1008.2 1007.9 13.8
18/07:00pm 19.8 21.7 18.5 92 0.8 NNE 6 9 3 5 1007.8 1007.5 13.8
18/06:30pm 19.9 21.3 18.7 93 0.8 NE 9 17 5 9 1007.9 1007.6 13.8
18/06:00pm 19.9 19.9 18.9 94 0.6 N 17 20 9 11 1007.5 1007.2 13.4
18/05:30pm 20.1 22.9 18.9 93 0.8 N 2 9 1 5 1007.6 1007.3 13.2
18/05:00pm 20.1 18.4 18.2 89 1.2 NNE 24 30 13 16 1007.5 1007.2 11.8
18/04:54pm 20.5 18.1 18.3 87 1.4 N 28 39 15 21 1008.2 1007.9 11.4
18/04:30pm 21.0 22.5 18.9 88 1.3 NE 9 13 5 7 1007.3 1007.0 10.6
18/04:05pm 21.9 21.8 17.9 78 2.5 SE 15 37 8 20 1006.9 1006.6 10.6
18/04:00pm 20.1 17.0 18.4 90 1.1 W 32 41 17 22 1009.0 1008.7 7.2
18/03:57pm 20.5 13.0 17.9 85 1.6 WNW 54 72 29 39 1008.6 1008.3 2.6
18/03:55pm 21.1 12.2 16.7 76 2.7 WNW 59 72 32 39 1007.9 1007.6 0.8
18/03:53pm 26.9 23.6 17.1 55 6.2 NW 30 56 16 30 1007.6 1007.3 0.2
18/03:52pm 27.5 25.3 16.8 52 6.7 NW 24 32 13 17 1007.0 1006.7 0.2
18/03:30pm 29.5 26.0 14.5 40 9.1 N 26 33 14 18 1004.9 1004.5 0.2
18/03:00pm 31.0 27.2 14.6 37 10.1 N 28 39 15 21 1004.8 1004.4 0.2
18/02:30pm 31.9 27.9 14.1 34 10.9 N 28 41 15 22 1005.4 1005.1 0.2
18/02:00pm 32.5 28.5 14.1 32 11.3 N 28 39 15 21 1005.8 1005.5 0.2
18/01:54pm 33.1 29.1 15.1 33 11.2 N 30 48 16 26 1006.0 1005.7 0.2
18/01:30pm 32.2 28.1 13.9 33 11.2 N 28 39 15 21 1006.6 1006.3 0.2
18/01:00pm 29.9 26.9 13.6 36 9.8 N 22 30 12 16 1007.4 1007.1 0.2
18/12:30pm 29.0 23.2 12.8 36 9.6 N 35 50 19 27 1008.0 1007.7 0.2
18/12:00pm 31.1 22.8 13.8 34 10.5 N 50 74 27 40 1008.6 1008.3 0.2
18/11:50am 32.2 24.8 12.9 31 11.6 N 44 63 24 34 1008.5 1008.2 0.2
18/11:30am 32.6 25.3 12.8 30 11.9 N 43 54 23 29 1008.7 1008.4 0.2
18/11:00am 31.1 25.4 12.9 32 10.9 N 35 50 19 27 1009.3 1008.9 0.2
18/10:30am 29.8 25.5 13.1 36 10.0 N 28 35 15 19 1009.9 1009.5 0.0

Other Formats:

Comma delimited format used in spreadsheet applications
http://www.bom.gov.au/fwo/IDW60801/IDW60801.95638.axf

JavaScript Object Notation format (JSON) in row-major order
http://www.bom.gov.au/fwo/IDW60801/IDW60801.95638.json